createdAt,value
2023-04-23T00:02:18.241Z,94832.03
2023-04-23T00:04:53.161Z,94826.84
2023-04-23T00:07:22.823Z,94837.78
2023-04-23T00:09:54.246Z,94837.50
2023-04-23T00:12:23.949Z,94833.28
2023-04-23T00:14:55.160Z,94831.00
2023-04-23T00:17:24.367Z,94837.50
2023-04-23T00:19:53.492Z,94836.50
2023-04-23T00:22:22.694Z,94833.28
2023-04-23T00:24:51.739Z,94829.47
2023-04-23T00:27:21.399Z,94832.78
2023-04-23T00:29:53.515Z,94833.16
2023-04-23T00:32:22.972Z,94835.34
2023-04-23T00:34:52.087Z,94828.84
2023-04-23T00:37:21.213Z,94838.41
2023-04-23T00:39:50.621Z,94842.13
2023-04-23T00:42:19.717Z,94831.88
2023-04-23T00:44:48.814Z,94836.47
2023-04-23T00:47:20.842Z,94837.09
2023-04-23T00:49:51.475Z,94838.59
2023-04-23T00:52:20.436Z,94838.94
2023-04-23T00:54:49.479Z,94840.41
2023-04-23T00:57:18.758Z,94837.00
2023-04-23T00:59:48.494Z,94841.31
2023-04-23T01:02:19.254Z,94830.00
2023-04-23T01:04:51.562Z,94833.50
2023-04-23T01:07:20.717Z,94834.13
2023-04-23T01:09:51.113Z,94834.97
2023-04-23T01:12:20.331Z,94836.19
2023-04-23T01:14:49.612Z,94834.22
2023-04-23T01:17:20.144Z,94838.66
2023-04-23T01:19:49.272Z,94842.53
2023-04-23T01:22:19.897Z,94837.47
2023-04-23T01:24:51.052Z,94834.69
2023-04-23T01:27:21.291Z,94830.25
2023-04-23T01:29:51.138Z,94835.50
2023-04-23T01:32:21.301Z,94837.47
2023-04-23T01:34:54.110Z,94840.69
2023-04-23T01:37:25.856Z,94839.47
2023-04-23T01:39:55.147Z,94841.91
2023-04-23T01:42:24.796Z,94843.88
2023-04-23T01:44:56.422Z,94840.03
2023-04-23T01:47:25.906Z,94852.16
2023-04-23T01:49:55.030Z,94849.53
2023-04-23T01:52:25.521Z,94849.78
2023-04-23T01:54:54.612Z,94840.09
2023-04-23T01:57:26.855Z,94846.16
2023-04-23T02:00:05.988Z,94843.31
2023-04-23T02:02:44.333Z,94845.78
2023-04-23T02:05:14.659Z,94851.47
2023-04-23T02:07:45.768Z,94848.44
2023-04-23T02:10:14.942Z,94851.63
2023-04-23T02:12:44.381Z,94847.63
2023-04-23T02:15:13.945Z,94847.22
2023-04-23T02:17:43.116Z,94843.78
2023-04-23T02:20:13.428Z,94847.81
2023-04-23T02:22:44.812Z,94844.78
2023-04-23T02:25:15.914Z,94843.78
2023-04-23T02:27:45.077Z,94850.84
2023-04-23T02:30:14.554Z,94848.78
2023-04-23T02:32:44.242Z,94849.94
2023-04-23T02:35:13.702Z,94845.22
2023-04-23T02:37:42.929Z,94849.06
2023-04-23T02:40:14.298Z,94847.44
2023-04-23T02:42:44.080Z,94848.25
2023-04-23T02:45:13.572Z,94845.03
2023-04-23T02:47:42.807Z,94845.47
2023-04-23T02:50:12.437Z,94848.94
2023-04-23T02:52:41.628Z,94852.00
2023-04-23T02:55:12.806Z,94851.41
2023-04-23T02:57:42.086Z,94847.84
2023-04-23T03:00:12.988Z,94845.25
2023-04-23T03:02:44.155Z,94850.91
2023-04-23T03:05:13.296Z,94854.41
2023-04-23T03:07:43.372Z,94857.63
2023-04-23T03:10:14.410Z,94852.38
2023-04-23T03:12:44.557Z,94859.25
2023-04-23T03:15:13.837Z,94859.31
2023-04-23T03:17:43.395Z,94857.50
2023-04-23T03:20:13.587Z,94856.84
2023-04-23T03:22:42.893Z,94857.88
2023-04-23T03:25:13.817Z,94855.84
2023-04-23T03:27:44.221Z,94859.06
2023-04-23T03:30:13.921Z,94860.28
2023-04-23T03:32:43.056Z,94858.84
2023-04-23T03:35:13.671Z,94851.34
2023-04-23T03:37:46.611Z,94855.38
2023-04-23T03:40:18.337Z,94857.63
2023-04-23T03:42:50.683Z,94860.66
2023-04-23T03:45:24.301Z,94854.41
2023-04-23T03:47:53.755Z,94859.66
2023-04-23T03:50:22.965Z,94865.13
2023-04-23T03:53:10.155Z,94865.94
2023-04-23T03:56:15.305Z,94863.72
2023-04-23T03:58:52.890Z,94866.34
2023-04-23T04:01:22.458Z,94863.53
2023-04-23T04:03:53.297Z,94861.88
2023-04-23T04:06:22.587Z,94863.66
2023-04-23T04:08:51.542Z,94861.22
2023-04-23T04:11:22.261Z,94870.50
2023-04-23T04:13:51.469Z,94874.91
2023-04-23T04:16:20.689Z,94875.13
2023-04-23T04:18:49.781Z,94875.50
2023-04-23T04:21:19.183Z,94879.91
2023-04-23T04:23:49.577Z,94890.94
2023-04-23T04:26:19.135Z,94888.91
2023-04-23T04:28:49.841Z,94891.34
2023-04-23T04:31:20.753Z,94891.28
2023-04-23T04:33:49.980Z,94904.25
2023-04-23T04:36:19.082Z,94901.25
2023-04-23T04:38:48.190Z,94903.28
2023-04-23T04:41:17.236Z,94905.03
2023-04-23T04:43:50.802Z,94904.19
2023-04-23T04:46:21.076Z,94907.41
2023-04-23T04:48:50.506Z,94914.63
2023-04-23T04:51:19.852Z,94918.00
2023-04-23T04:53:49.056Z,94917.19
2023-04-23T04:56:18.119Z,94918.69
2023-04-23T04:58:47.627Z,94915.00
2023-04-23T05:01:18.669Z,94912.72
2023-04-23T05:03:48.079Z,94911.09
2023-04-23T05:06:17.338Z,94919.94
2023-04-23T05:08:48.439Z,94919.53
2023-04-23T05:11:18.353Z,94921.06
2023-04-23T05:13:47.664Z,94922.44
2023-04-23T05:16:18.284Z,94919.84
2023-04-23T05:18:47.271Z,94916.50
2023-04-23T05:21:17.138Z,94928.31
2023-04-23T05:23:46.244Z,94931.59
2023-04-23T05:26:15.358Z,94927.06
2023-04-23T05:28:44.428Z,94926.56
2023-04-23T05:31:13.570Z,94927.75
2023-04-23T05:33:50.113Z,94930.19
2023-04-23T05:36:20.085Z,94929.72
2023-04-23T05:38:49.251Z,94932.44
2023-04-23T05:41:18.446Z,94937.94
2023-04-23T05:43:47.425Z,94937.66
2023-04-23T05:46:16.440Z,94937.00
2023-04-23T05:48:46.926Z,94941.09
2023-04-23T05:51:16.073Z,94938.94
2023-04-23T05:53:45.308Z,94944.69
2023-04-23T05:56:14.438Z,94953.41
2023-04-23T05:58:43.643Z,94945.94
2023-04-23T06:01:12.659Z,94944.97
2023-04-23T06:03:45.740Z,94943.72
2023-04-23T06:06:16.853Z,94941.19
2023-04-23T06:08:46.235Z,94944.94
2023-04-23T06:11:15.284Z,94944.88
2023-04-23T06:13:44.672Z,94942.94
2023-04-23T06:16:13.911Z,94941.13
2023-04-23T06:18:43.208Z,94947.56
2023-04-23T06:21:12.855Z,94952.16
2023-04-23T06:23:43.569Z,94954.59
2023-04-23T06:26:12.582Z,94949.34
2023-04-23T06:28:43.838Z,94948.19
2023-04-23T06:31:34.227Z,94939.94
2023-04-23T06:34:03.959Z,94946.09
2023-04-23T06:36:33.346Z,94939.84
2023-04-23T06:39:03.839Z,94946.22
2023-04-23T06:41:33.015Z,94955.59
2023-04-23T06:44:13.884Z,94946.75
2023-04-23T06:46:50.287Z,94953.53
2023-04-23T06:49:20.283Z,94950.47
2023-04-23T06:51:49.732Z,94945.59
2023-04-23T06:54:20.244Z,94947.13
2023-04-23T06:56:49.471Z,94942.75
2023-04-23T06:59:19.755Z,94939.41
2023-04-23T07:01:52.843Z,94937.91
2023-04-23T07:04:22.088Z,94944.63
2023-04-23T07:06:51.456Z,94936.66
2023-04-23T07:09:22.072Z,94944.53
2023-04-23T07:11:51.327Z,94946.38
2023-04-23T07:14:20.488Z,94946.03
2023-04-23T07:16:49.678Z,94950.94
2023-04-23T07:19:19.056Z,94945.00
2023-04-23T07:21:48.135Z,94939.06
2023-04-23T07:24:17.459Z,94944.03
2023-04-23T07:26:48.155Z,94945.59
2023-04-23T07:29:17.385Z,94939.34
2023-04-23T07:31:46.700Z,94942.34
2023-04-23T07:34:16.249Z,94941.44
2023-04-23T07:36:45.396Z,94935.75
2023-04-23T07:39:14.392Z,94935.78
2023-04-23T07:41:43.495Z,94931.56
2023-04-23T07:44:14.139Z,94940.09
2023-04-23T07:46:43.314Z,94945.19
2023-04-23T07:49:12.396Z,94941.25
2023-04-23T07:51:41.856Z,94934.56
2023-04-23T07:54:11.890Z,94935.06
2023-04-23T07:56:43.139Z,94938.84
2023-04-23T07:59:14.035Z,94937.97
2023-04-23T08:01:43.364Z,94942.53
2023-04-23T08:04:14.312Z,94943.09
2023-04-23T08:06:43.622Z,94936.97
2023-04-23T08:09:12.681Z,94940.41
2023-04-23T08:11:42.581Z,94938.03
2023-04-23T08:14:12.052Z,94940.69
2023-04-23T08:16:42.703Z,94933.97
2023-04-23T08:19:12.179Z,94922.66
2023-04-23T08:21:42.483Z,94937.03
2023-04-23T08:24:11.654Z,94931.97
2023-04-23T08:26:41.318Z,94926.59
2023-04-23T08:29:11.604Z,94914.78
2023-04-23T08:31:42.562Z,94920.63
2023-04-23T08:34:11.752Z,94922.88
2023-04-23T08:36:41.014Z,94911.41
2023-04-23T08:39:10.206Z,94902.59
2023-04-23T08:41:43.198Z,94924.00
2023-04-23T08:44:14.427Z,94911.38
2023-04-23T08:46:46.806Z,94910.16
2023-04-23T08:49:17.847Z,94910.28
2023-04-23T08:51:51.142Z,94910.53
2023-04-23T08:54:24.383Z,94903.06
2023-04-23T08:56:53.582Z,94907.31
2023-04-23T08:59:23.354Z,94909.66
2023-04-23T09:01:54.875Z,94911.50
2023-04-23T09:04:25.764Z,94910.88
2023-04-23T09:06:55.001Z,94903.97
2023-04-23T09:09:27.125Z,94904.19
2023-04-23T09:11:57.520Z,94892.09
2023-04-23T09:14:27.920Z,94899.13
2023-04-23T09:16:59.086Z,94898.56
2023-04-23T09:19:29.268Z,94891.94
2023-04-23T09:22:01.458Z,94887.03
2023-04-23T09:24:31.185Z,94881.78
2023-04-23T09:27:00.541Z,94877.19
2023-04-23T09:29:29.890Z,94883.81
2023-04-23T09:32:08.454Z,94881.34
2023-04-23T09:34:39.183Z,94871.38
2023-04-23T09:37:11.248Z,94871.97
2023-04-23T09:39:41.488Z,94873.22
2023-04-23T09:42:12.864Z,94869.34
2023-04-23T09:44:42.166Z,94861.22
2023-04-23T09:47:15.209Z,94849.25
2023-04-23T09:49:48.733Z,94858.56
2023-04-23T09:52:18.516Z,94844.56
2023-04-23T09:54:48.070Z,94848.28
2023-04-23T09:57:17.878Z,94849.31
2023-04-23T09:59:51.547Z,94839.22
2023-04-23T10:02:29.477Z,94840.13
2023-04-23T10:05:14.086Z,94845.63
2023-04-23T10:07:51.122Z,94836.59
2023-04-23T10:10:21.577Z,94822.22
2023-04-23T10:12:55.189Z,94815.72
2023-04-23T10:15:27.928Z,94820.84
2023-04-23T10:17:59.568Z,94807.75
2023-04-23T10:20:32.457Z,94814.47
2023-04-23T10:23:02.775Z,94817.75
2023-04-23T10:25:32.732Z,94813.69
2023-04-23T10:28:03.663Z,94810.94
2023-04-23T10:30:32.959Z,94798.06
2023-04-23T10:33:06.089Z,94795.06
2023-04-23T10:35:38.585Z,94794.91
2023-04-23T10:38:08.277Z,94782.38
2023-04-23T10:40:39.494Z,94779.63
2023-04-23T10:43:08.916Z,94774.06
2023-04-23T10:45:37.995Z,94776.13
2023-04-23T10:48:08.894Z,94782.94
2023-04-23T10:50:41.688Z,94763.94
2023-04-23T10:53:22.673Z,94770.03
2023-04-23T10:55:52.010Z,94761.97
2023-04-23T10:58:22.385Z,94754.78
2023-04-23T11:00:52.498Z,94752.00
2023-04-23T11:03:33.944Z,94755.38
2023-04-23T11:06:04.155Z,94748.56
2023-04-23T11:08:33.868Z,94750.13
2023-04-23T11:11:03.884Z,94746.91
2023-04-23T11:13:32.937Z,94741.06
2023-04-23T11:16:18.740Z,94741.19
2023-04-23T11:19:12.626Z,94735.78
2023-04-23T11:22:01.280Z,94742.22
2023-04-23T11:24:36.856Z,94744.25
2023-04-23T11:27:08.292Z,94743.97
2023-04-23T11:29:39.051Z,94746.06
2023-04-23T11:32:10.990Z,94742.25
2023-04-23T11:34:43.658Z,94750.00
2023-04-23T11:37:16.442Z,94745.38
2023-04-23T11:39:47.805Z,94751.91
2023-04-23T11:42:17.554Z,94746.84
2023-04-23T11:44:47.981Z,94744.72
2023-04-23T11:47:18.911Z,94738.34
2023-04-23T11:49:50.208Z,94741.66
2023-04-23T11:52:19.332Z,94745.66
2023-04-23T11:54:48.357Z,94741.38
2023-04-23T11:57:17.285Z,94740.66
2023-04-23T11:59:46.256Z,94741.00
2023-04-23T12:02:15.434Z,94732.94
2023-04-23T12:04:45.887Z,94733.03
2023-04-23T12:07:25.667Z,94732.25
2023-04-23T12:10:00.932Z,94730.44
2023-04-23T12:12:36.490Z,94730.47
2023-04-23T12:15:06.875Z,94714.91
2023-04-23T12:17:36.357Z,94703.50
2023-04-23T12:20:07.945Z,94709.06
2023-04-23T12:22:38.559Z,94702.06
2023-04-23T12:25:09.850Z,94697.84
2023-04-23T12:27:42.749Z,94699.78
2023-04-23T12:30:13.414Z,94696.03
2023-04-23T12:32:43.062Z,94699.53
2023-04-23T12:35:12.457Z,94698.41
2023-04-23T12:37:43.076Z,94691.34
2023-04-23T12:40:13.194Z,94694.06
2023-04-23T12:42:42.631Z,94695.94
2023-04-23T12:45:12.245Z,94686.22
2023-04-23T12:47:41.468Z,94684.88
2023-04-23T12:50:11.650Z,94678.56
2023-04-23T12:52:40.826Z,94676.66
2023-04-23T12:55:11.719Z,94672.53
2023-04-23T12:57:40.870Z,94666.44
2023-04-23T13:00:11.497Z,94665.88
2023-04-23T13:02:40.953Z,94664.28
2023-04-23T13:05:10.718Z,94672.38
2023-04-23T13:07:39.788Z,94667.75
2023-04-23T13:10:11.669Z,94653.53
2023-04-23T13:12:41.020Z,94644.03
2023-04-23T13:15:12.997Z,94646.97
2023-04-23T13:17:47.278Z,94647.91
2023-04-23T13:20:16.671Z,94644.28
2023-04-23T13:22:45.954Z,94635.66
2023-04-23T13:25:16.773Z,94646.09
2023-04-23T13:27:46.353Z,94643.69
2023-04-23T13:30:15.856Z,94640.44
2023-04-23T13:32:45.083Z,94644.72
2023-04-23T13:35:16.472Z,94641.22
2023-04-23T13:37:45.703Z,94628.28
2023-04-23T13:40:16.221Z,94636.91
2023-04-23T13:42:48.271Z,94632.88
2023-04-23T13:45:17.432Z,94638.09
2023-04-23T13:47:46.717Z,94636.41
2023-04-23T13:50:15.998Z,94632.22
2023-04-23T13:52:45.206Z,94631.91
2023-04-23T13:55:16.079Z,94632.81
2023-04-23T13:57:45.399Z,94618.75
2023-04-23T14:00:15.425Z,94626.81
2023-04-23T14:02:44.695Z,94618.34
2023-04-23T14:05:14.019Z,94623.34
2023-04-23T14:07:43.171Z,94607.44
2023-04-23T14:10:12.917Z,94616.19
2023-04-23T14:12:43.728Z,94621.03
2023-04-23T14:15:13.282Z,94624.59
2023-04-23T14:17:43.496Z,94613.69
2023-04-23T14:20:15.784Z,94614.38
2023-04-23T14:22:45.070Z,94612.13
2023-04-23T14:25:17.626Z,94612.28
2023-04-23T14:27:51.855Z,94607.72
2023-04-23T14:30:22.131Z,94601.53
2023-04-23T14:32:51.320Z,94604.19
2023-04-23T14:35:32.248Z,94605.78
2023-04-23T14:38:09.902Z,94601.50
2023-04-23T14:40:38.902Z,94600.56
2023-04-23T14:43:15.516Z,94596.47
2023-04-23T14:45:45.653Z,94596.38
2023-04-23T14:48:15.349Z,94593.50
2023-04-23T14:50:44.716Z,94588.63
2023-04-23T14:53:13.953Z,94586.53
2023-04-23T14:55:43.637Z,94596.66
2023-04-23T14:58:14.337Z,94595.56
2023-04-23T15:00:43.590Z,94596.84
2023-04-23T15:03:13.080Z,94590.50
2023-04-23T15:05:43.041Z,94588.19
2023-04-23T15:08:13.530Z,94588.88
2023-04-23T15:10:42.737Z,94593.63
2023-04-23T15:13:37.085Z,94589.88
2023-04-23T15:16:11.177Z,94583.31
2023-04-23T15:18:40.574Z,94579.16
2023-04-23T15:21:09.882Z,94581.50
2023-04-23T15:23:40.535Z,94574.56
2023-04-23T15:26:09.830Z,94570.34
2023-04-23T15:28:40.522Z,94580.59
2023-04-23T15:31:09.653Z,94575.97
2023-04-23T15:33:39.018Z,94577.22
2023-04-23T15:36:08.491Z,94574.03
2023-04-23T15:38:37.767Z,94576.25
2023-04-23T15:41:07.435Z,94583.00
2023-04-23T15:43:36.582Z,94576.81
2023-04-23T15:46:07.235Z,94579.28
2023-04-23T15:48:39.869Z,94583.69
2023-04-23T15:51:09.941Z,94586.84
2023-04-23T15:53:39.359Z,94582.75
2023-04-23T15:56:08.653Z,94578.91
2023-04-23T15:58:37.876Z,94573.97
2023-04-23T16:01:10.047Z,94580.78
2023-04-23T16:03:39.631Z,94570.38
2023-04-23T16:06:09.958Z,94576.97
2023-04-23T16:08:40.024Z,94574.56
2023-04-23T16:11:09.916Z,94571.25
2023-04-23T16:13:39.212Z,94580.22
2023-04-23T16:16:09.855Z,94573.03
2023-04-23T16:18:38.997Z,94570.59
2023-04-23T16:21:08.068Z,94577.03
2023-04-23T16:23:37.378Z,94576.31
2023-04-23T16:26:09.128Z,94575.28
2023-04-23T16:28:38.389Z,94576.47
2023-04-23T16:31:07.895Z,94569.81
2023-04-23T16:33:38.500Z,94570.69
2023-04-23T16:36:08.245Z,94569.16
2023-04-23T16:38:37.488Z,94575.34
2023-04-23T16:41:06.984Z,94566.31
2023-04-23T16:43:36.244Z,94563.50
2023-04-23T16:46:05.641Z,94560.97
2023-04-23T16:48:46.760Z,94554.06
2023-04-23T16:51:17.145Z,94562.91
2023-04-23T16:53:46.236Z,94558.25
2023-04-23T16:56:15.764Z,94562.06
2023-04-23T16:58:45.231Z,94556.44
2023-04-23T17:01:14.336Z,94558.78
2023-04-23T17:03:45.231Z,94557.78
2023-04-23T17:06:27.048Z,94559.50
2023-04-23T17:08:57.901Z,94562.28
2023-04-23T17:11:27.878Z,94566.78
2023-04-23T17:13:57.840Z,94567.41
2023-04-23T17:16:27.911Z,94570.38
2023-04-23T17:18:58.686Z,94569.94
2023-04-23T17:21:28.003Z,94574.19
2023-04-23T17:24:00.350Z,94571.78
2023-04-23T17:26:29.555Z,94577.41
2023-04-23T17:28:58.698Z,94582.81
2023-04-23T17:31:28.055Z,94580.03
2023-04-23T17:33:59.234Z,94577.69
2023-04-23T17:36:28.494Z,94580.91
2023-04-23T17:38:57.662Z,94579.03
2023-04-23T17:41:26.818Z,94583.59
2023-04-23T17:43:56.109Z,94585.25
2023-04-23T17:46:25.612Z,94585.84
2023-04-23T17:48:54.919Z,94580.06
2023-04-23T17:51:25.490Z,94585.94
2023-04-23T17:53:54.701Z,94600.38
2023-04-23T17:56:24.080Z,94591.03
2023-04-23T17:58:53.077Z,94595.88
2023-04-23T18:01:22.197Z,94604.69
2023-04-23T18:03:51.977Z,94604.69
2023-04-23T18:06:24.708Z,94604.69
2023-04-23T18:08:55.298Z,94613.75
2023-04-23T18:11:24.841Z,94620.38
2023-04-23T18:13:54.731Z,94620.66
2023-04-23T18:16:23.972Z,94620.38
2023-04-23T18:18:53.107Z,94627.56
2023-04-23T18:21:23.612Z,94631.22
2023-04-23T18:23:52.845Z,94629.38
2023-04-23T18:26:24.201Z,94633.09
2023-04-23T18:28:55.925Z,94636.50
2023-04-23T18:31:25.111Z,94629.03
2023-04-23T18:33:58.623Z,94631.16
2023-04-23T18:36:33.249Z,94642.31
2023-04-23T18:39:04.491Z,94630.56
2023-04-23T18:41:36.293Z,94639.84
2023-04-23T18:44:08.281Z,94630.75
2023-04-23T18:46:43.418Z,94646.41
2023-04-23T18:49:41.557Z,94650.38
2023-04-23T18:52:13.988Z,94646.16
2023-04-23T18:54:44.490Z,94647.22
2023-04-23T18:57:15.073Z,94641.03
2023-04-23T18:59:44.424Z,94644.88
2023-04-23T19:02:18.922Z,94647.59
2023-04-23T19:04:58.048Z,94646.13
2023-04-23T19:07:27.303Z,94647.03
2023-04-23T19:09:56.432Z,94651.00
2023-04-23T19:12:27.318Z,94653.13
2023-04-23T19:14:56.455Z,94648.53
2023-04-23T19:17:25.678Z,94650.19
2023-04-23T19:19:54.978Z,94654.84
2023-04-23T19:22:26.010Z,94661.03
2023-04-23T19:24:55.250Z,94662.63
2023-04-23T19:27:24.344Z,94656.19
2023-04-23T19:29:56.043Z,94651.44
2023-04-23T19:32:25.223Z,94658.22
2023-04-23T19:34:54.288Z,94659.88
2023-04-23T19:37:23.426Z,94661.50
2023-04-23T19:39:52.610Z,94665.16
2023-04-23T19:42:22.215Z,94669.72
2023-04-23T19:44:51.411Z,94664.59
2023-04-23T19:47:22.052Z,94675.75
2023-04-23T19:49:51.590Z,94667.19
2023-04-23T19:52:24.275Z,94670.44
2023-04-23T19:54:53.470Z,94673.78
2023-04-23T19:57:23.025Z,94674.81
2023-04-23T19:59:52.184Z,94671.94
2023-04-23T20:02:22.749Z,94668.19
2023-04-23T20:04:52.143Z,94668.19
2023-04-23T20:07:21.334Z,94662.81
2023-04-23T20:09:50.744Z,94672.56
2023-04-23T20:12:21.189Z,94663.47
2023-04-23T20:14:50.233Z,94661.84
2023-04-23T20:17:19.506Z,94673.53
2023-04-23T20:19:50.056Z,94666.81
2023-04-23T20:22:19.161Z,94678.44
2023-04-23T20:24:49.037Z,94660.66
2023-04-23T20:27:18.256Z,94661.94
2023-04-23T20:29:47.502Z,94668.16
2023-04-23T20:32:17.678Z,94661.94
2023-04-23T20:34:47.005Z,94660.22
2023-04-23T20:37:21.735Z,94661.50
2023-04-23T20:39:51.213Z,94660.25
2023-04-23T20:42:20.195Z,94668.09
2023-04-23T20:44:49.303Z,94662.38
2023-04-23T20:47:18.327Z,94668.22
2023-04-23T20:49:47.481Z,94670.84
2023-04-23T20:52:18.012Z,94674.63
2023-04-23T20:54:47.194Z,94673.09
2023-04-23T20:57:16.347Z,94681.88
2023-04-23T20:59:45.494Z,94682.50
2023-04-23T21:02:15.496Z,94685.91
2023-04-23T21:04:44.680Z,94688.47
2023-04-23T21:07:13.794Z,94694.25
2023-04-23T21:09:44.674Z,94696.72
2023-04-23T21:12:14.044Z,94703.00
2023-04-23T21:14:43.576Z,94700.31
2023-04-23T21:17:12.589Z,94693.69
2023-04-23T21:19:42.297Z,94708.81
2023-04-23T21:22:11.814Z,94711.16
2023-04-23T21:24:40.994Z,94709.72
2023-04-23T21:27:12.581Z,94713.19
2023-04-23T21:29:42.857Z,94708.06
2023-04-23T21:32:21.741Z,94723.72
2023-04-23T21:34:51.093Z,94719.84
2023-04-23T21:37:20.284Z,94716.06
2023-04-23T21:39:49.207Z,94725.09
2023-04-23T21:42:20.028Z,94722.44
2023-04-23T21:44:49.114Z,94718.00
2023-04-23T21:47:18.099Z,94716.34
2023-04-23T21:49:47.305Z,94708.22
2023-04-23T21:52:17.582Z,94688.63
2023-04-23T21:54:46.738Z,94673.91
2023-04-23T21:57:16.151Z,94664.28
2023-04-23T21:59:46.789Z,94655.28
2023-04-23T22:02:16.132Z,94668.38
2023-04-23T22:04:45.329Z,94662.97
2023-04-23T22:07:14.878Z,94672.16
2023-04-23T22:09:44.463Z,94683.16
2023-04-23T22:12:13.726Z,94683.53
2023-04-23T22:14:42.971Z,94689.63
2023-04-23T22:17:13.642Z,94688.25
2023-04-23T22:19:43.184Z,94685.13
2023-04-23T22:22:12.381Z,94684.81
2023-04-23T22:24:41.586Z,94689.31
2023-04-23T22:27:10.702Z,94688.34
2023-04-23T22:29:40.004Z,94694.94
2023-04-23T22:32:09.193Z,94696.56
2023-04-23T22:34:40.251Z,94691.28
2023-04-23T22:37:09.390Z,94683.88
2023-04-23T22:39:44.426Z,94686.84
2023-04-23T22:42:13.704Z,94688.03
2023-04-23T22:44:42.654Z,94694.44
2023-04-23T22:47:12.312Z,94686.28
2023-04-23T22:49:43.129Z,94692.63
2023-04-23T22:52:14.549Z,94693.19
2023-04-23T22:54:43.850Z,94686.38
2023-04-23T22:57:13.134Z,94687.16
2023-04-23T22:59:42.800Z,94684.94
2023-04-23T23:02:12.488Z,94681.44
2023-04-23T23:04:43.123Z,94683.53
2023-04-23T23:07:12.248Z,94676.19
2023-04-23T23:09:41.727Z,94672.34
2023-04-23T23:12:11.007Z,94674.22
2023-04-23T23:14:40.384Z,94666.22
2023-04-23T23:17:09.808Z,94667.94
2023-04-23T23:19:38.988Z,94657.94
2023-04-23T23:22:09.456Z,94657.69
2023-04-23T23:24:38.674Z,94658.84
2023-04-23T23:27:07.680Z,94653.34
2023-04-23T23:29:36.875Z,94645.72
2023-04-23T23:32:06.031Z,94650.69
2023-04-23T23:34:35.069Z,94657.16
2023-04-23T23:37:04.307Z,94652.03
2023-04-23T23:39:34.737Z,94656.31
2023-04-23T23:42:04.136Z,94653.19
2023-04-23T23:44:33.256Z,94656.66
2023-04-23T23:47:02.481Z,94650.09
2023-04-23T23:49:31.611Z,94651.41
2023-04-23T23:52:00.694Z,94640.63
2023-04-23T23:54:29.869Z,94635.69
2023-04-23T23:57:01.690Z,94630.13
2023-04-23T23:59:30.801Z,94638.94
